Time;durP1;ratioP1;P1;durP2;ratioP2;P2;SDS_P1;SDS_P2;PMS_P1;PMS_P2;Temp;Humidity;BMP_temperature;BMP_pressure;BME280_temperature;BME280_humidity;BME280_pressure;Samples;Min_cycle;Max_cycle;Signal;HPM_P1;HPM_P2
2023/09/30 00:00:08;;;;;;;0.10;0.10;;;;;;;20.14;89.17;100942.47;5073370;28;20038;-56
2023/09/30 00:02:33;;;;;;;0.20;0.20;;;;;;;20.05;90.03;100939.44;5091383;28;20024;-56
2023/09/30 00:04:59;;;;;;;0.10;0.10;;;;;;;19.82;90.68;100910.16;5089990;28;20047;-57
2023/09/30 00:07:24;;;;;;;0.15;0.15;;;;;;;19.88;91.39;100932.28;5091539;28;20019;-56
2023/09/30 00:09:51;;;;;;;0.10;0.10;;;;;;;19.79;91.27;100921.97;5088147;28;20372;-56
2023/09/30 00:12:17;;;;;;;0.20;0.20;;;;;;;19.74;92.13;100924.06;5092180;28;20023;-56
2023/09/30 00:14:43;;;;;;;0.10;0.10;;;;;;;19.67;92.03;100918.13;5092412;28;20515;-56
2023/09/30 00:17:08;;;;;;;0.10;0.10;;;;;;;19.60;92.67;100932.06;5092472;28;20367;-56
2023/09/30 00:19:34;;;;;;;0.10;0.10;;;;;;;19.53;93.13;100931.53;5084703;28;20052;-56
2023/09/30 00:22:00;;;;;;;0.10;0.10;;;;;;;19.47;93.17;100929.16;5072044;28;20021;-56
2023/09/30 00:24:26;;;;;;;0.20;0.20;;;;;;;19.42;93.71;100933.94;5071706;28;20028;-57
2023/09/30 00:26:51;;;;;;;0.20;0.20;;;;;;;19.35;94.61;100945.16;5071856;28;20028;-56
2023/09/30 00:29:17;;;;;;;0.20;0.20;;;;;;;19.30;94.99;100944.53;5082159;28;20059;-56
2023/09/30 00:31:44;;;;;;;0.20;0.20;;;;;;;19.22;95.34;100949.44;5091868;28;20040;-56
2023/09/30 00:34:09;;;;;;;0.10;0.10;;;;;;;19.16;95.41;100953.31;5085360;28;20044;-56
2023/09/30 00:36:35;;;;;;;0.10;0.10;;;;;;;19.13;95.65;100947.19;5071808;28;20025;-57
2023/09/30 00:39:00;;;;;;;0.20;0.20;;;;;;;19.03;95.69;100952.22;5071595;28;20408;-56
2023/09/30 00:41:26;;;;;;;0.10;0.10;;;;;;;18.94;96.44;100947.31;5084909;28;20135;-56
2023/09/30 00:43:51;;;;;;;0.20;0.20;;;;;;;18.90;96.68;100945.72;5081678;28;20032;-56
2023/09/30 00:46:32;;;;;;;0.10;0.10;;;;;;;18.91;97.27;100947.44;5073901;28;20452;-56
2023/09/30 00:48:58;;;;;;;0.20;0.20;;;;;;;18.89;97.38;100948.50;5090925;28;20024;-57
2023/09/30 00:51:25;;;;;;;0.20;0.20;;;;;;;18.85;98.19;100946.91;5088533;28;20028;-57
2023/09/30 00:53:56;;;;;;;0.20;0.20;;;;;;;18.79;98.64;100941.81;5088132;28;20039;-57
2023/09/30 00:56:25;;;;;;;0.20;0.20;;;;;;;18.76;98.59;100947.38;5089471;28;20036;-57
2023/09/30 00:58:51;;;;;;;0.20;0.20;;;;;;;18.74;98.95;100952.84;5085654;28;20092;-56
2023/09/30 01:01:19;;;;;;;0.20;0.20;;;;;;;18.69;99.62;100952.22;5089096;28;20028;-59
2023/09/30 01:03:46;;;;;;;0.20;0.20;;;;;;;18.68;99.97;100949.59;5076761;28;20174;-59
2023/09/30 01:06:11;;;;;;;0.20;0.20;;;;;;;18.67;99.93;100953.22;5070971;28;20030;-60
2023/09/30 01:08:37;;;;;;;0.20;0.20;;;;;;;18.62;100.00;100955.28;5072673;28;20460;-59
2023/09/30 01:11:02;;;;;;;0.20;0.20;;;;;;;18.61;100.00;100953.56;5080602;28;20051;-60
2023/09/30 01:13:35;;;;;;;0.20;0.20;;;;;;;18.58;100.00;100937.53;5089163;28;20028;-59
2023/09/30 01:16:05;;;;;;;0.20;0.20;;;;;;;18.54;100.00;100935.94;5091202;28;20028;-59
2023/09/30 01:18:30;;;;;;;0.20;0.20;;;;;;;18.50;100.00;100951.38;5075125;28;20030;-59
2023/09/30 01:20:56;;;;;;;0.20;0.20;;;;;;;18.46;100.00;100943.53;5070744;28;20054;-60
2023/09/30 01:23:22;;;;;;;0.20;0.20;;;;;;;18.36;100.00;100946.66;5073067;28;20698;-60
2023/09/30 01:25:47;;;;;;;0.20;0.20;;;;;;;18.32;100.00;100952.25;5089255;28;20032;-59
2023/09/30 01:28:14;;;;;;;0.20;0.20;;;;;;;18.26;100.00;100950.75;5089947;28;20027;-60
2023/09/30 01:30:39;;;;;;;0.20;0.20;;;;;;;18.23;100.00;100953.63;5087714;28;20028;-59
2023/09/30 01:33:07;;;;;;;0.20;0.20;;;;;;;18.19;100.00;100941.22;5090715;28;20089;-59
2023/09/30 01:35:33;;;;;;;0.20;0.20;;;;;;;18.25;100.00;100945.47;5087002;28;20024;-59
2023/09/30 01:37:58;;;;;;;0.20;0.20;;;;;;;18.31;100.00;100951.41;5090685;28;20741;-59
2023/09/30 01:40:23;;;;;;;0.10;0.10;;;;;;;18.36;100.00;100948.47;5088261;28;20023;-59
2023/09/30 01:42:49;;;;;;;0.20;0.20;;;;;;;18.43;100.00;100957.16;5071444;28;20026;-59
2023/09/30 01:45:14;;;;;;;0.20;0.20;;;;;;;18.48;100.00;100952.41;5069386;28;20028;-59
2023/09/30 01:47:40;;;;;;;0.20;0.20;;;;;;;18.51;100.00;100947.75;5071660;28;20032;-59
2023/09/30 01:50:06;;;;;;;0.20;0.20;;;;;;;18.55;100.00;100951.19;5085311;28;20798;-59
2023/09/30 01:52:31;;;;;;;0.20;0.20;;;;;;;18.55;100.00;100948.47;5087269;28;20104;-59
2023/09/30 01:54:56;;;;;;;0.20;0.20;;;;;;;18.59;100.00;100966.22;5076280;28;20447;-59
2023/09/30 01:57:22;;;;;;;0.20;0.20;;;;;;;18.58;100.00;100964.50;5089347;28;20469;-59
2023/09/30 01:59:47;;;;;;;0.15;0.15;;;;;;;18.62;100.00;100966.06;5080002;28;20028;-59
2023/09/30 02:02:13;;;;;;;0.10;0.10;;;;;;;18.60;100.00;100968.00;5089936;28;20047;-59
2023/09/30 02:04:38;;;;;;;0.20;0.20;;;;;;;18.61;100.00;100965.22;5089999;28;20032;-59
2023/09/30 02:07:04;;;;;;;0.20;0.20;;;;;;;18.63;100.00;100970.53;5090195;28;20080;-59
2023/09/30 02:09:29;;;;;;;0.20;0.20;;;;;;;18.66;100.00;100973.94;5088394;28;20034;-56
2023/09/30 02:11:55;;;;;;;0.20;0.20;;;;;;;18.73;100.00;100969.09;5072606;28;20067;-56
2023/09/30 02:14:20;;;;;;;0.20;0.20;;;;;;;18.77;100.00;100970.69;5061730;28;20498;-56
2023/09/30 02:16:46;;;;;;;0.20;0.20;;;;;;;18.81;100.00;100969.59;5049963;28;20359;-56
2023/09/30 02:19:12;;;;;;;0.20;0.20;;;;;;;18.81;100.00;100966.88;5049310;28;20155;-56
2023/09/30 02:21:38;;;;;;;0.20;0.20;;;;;;;18.75;100.00;100969.88;5067446;28;20024;-57
2023/09/30 02:24:06;;;;;;;0.20;0.20;;;;;;;18.74;100.00;100965.44;5069346;28;20456;-57
2023/09/30 02:26:32;;;;;;;0.20;0.20;;;;;;;18.69;100.00;100968.38;5059663;28;20428;-56
2023/09/30 02:28:58;;;;;;;0.20;0.20;;;;;;;18.63;100.00;100971.41;5049629;28;20103;-56
2023/09/30 02:31:24;;;;;;;0.20;0.20;;;;;;;18.58;100.00;100975.28;5050001;28;20108;-57
2023/09/30 02:33:49;;;;;;;0.20;0.20;;;;;;;18.58;100.00;100968.06;5050532;28;20116;-56
2023/09/30 02:36:15;;;;;;;0.20;0.20;;;;;;;18.60;100.00;100966.13;5048293;28;20027;-57
2023/09/30 02:38:41;;;;;;;0.20;0.20;;;;;;;18.58;100.00;100965.38;5048344;28;20049;-56
2023/09/30 02:41:07;;;;;;;0.20;0.20;;;;;;;18.61;100.00;100975.09;5053895;28;20028;-56
2023/09/30 02:43:32;;;;;;;0.20;0.20;;;;;;;18.63;100.00;100975.91;5047381;28;20053;-57
2023/09/30 02:45:58;;;;;;;0.20;0.20;;;;;;;18.63;100.00;100970.53;5060617;28;20024;-57
2023/09/30 02:48:23;;;;;;;0.20;0.20;;;;;;;18.70;100.00;100980.06;5067475;28;20028;-57
2023/09/30 02:50:49;;;;;;;0.20;0.20;;;;;;;18.69;100.00;100973.78;5060429;28;20094;-56
2023/09/30 02:53:14;;;;;;;0.20;0.20;;;;;;;18.70;100.00;100977.34;5048290;28;20091;-57
2023/09/30 02:55:41;;;;;;;0.20;0.20;;;;;;;18.70;100.00;100974.66;5058854;28;20040;-57
2023/09/30 02:58:08;;;;;;;0.13;0.13;;;;;;;18.68;100.00;100979.25;5049528;28;20037;-57
2023/09/30 03:00:34;;;;;;;0.20;0.20;;;;;;;19.19;100.00;100981.97;5049482;28;20477;-57
2023/09/30 03:03:04;;;;;;;0.20;0.20;;;;;;;18.71;100.00;100979.09;5051756;28;20043;-57
2023/09/30 03:05:33;;;;;;;0.20;0.20;;;;;;;18.93;100.00;100982.44;5064909;28;20488;-56
2023/09/30 03:07:59;;;;;;;0.20;0.20;;;;;;;18.89;100.00;100986.25;5064026;28;20546;-57
2023/09/30 03:10:26;;;;;;;0.20;0.20;;;;;;;18.86;100.00;100986.41;5060730;28;20097;-57
2023/09/30 03:13:03;;;;;;;0.20;0.20;;;;;;;18.86;100.00;100979.16;5089558;28;20440;-57
2023/09/30 03:15:32;;;;;;;0.20;0.20;;;;;;;18.90;100.00;100975.38;5076423;28;20546;-56
2023/09/30 03:17:59;;;;;;;0.17;0.17;;;;;;;18.93;100.00;100983.31;5089396;28;20127;-56
2023/09/30 03:20:25;;;;;;;0.20;0.20;;;;;;;18.93;100.00;100979.75;5086237;28;20024;-57
2023/09/30 03:22:51;;;;;;;0.20;0.20;;;;;;;18.99;100.00;100971.34;5088988;28;20034;-57
2023/09/30 03:25:18;;;;;;;0.20;0.20;;;;;;;19.05;100.00;100976.41;5087667;28;20331;-57
2023/09/30 03:27:47;;;;;;;0.20;0.20;;;;;;;19.08;100.00;100965.44;5070947;28;20028;-56
2023/09/30 03:30:16;;;;;;;0.20;0.20;;;;;;;19.10;100.00;100963.56;5068924;28;20028;-57
2023/09/30 03:32:43;;;;;;;0.20;0.20;;;;;;;19.07;100.00;100952.94;5074426;28;20047;-56
2023/09/30 03:35:19;;;;;;;0.20;0.20;;;;;;;19.05;100.00;100960.22;5072232;28;20476;-57
2023/09/30 03:37:45;;;;;;;0.20;0.20;;;;;;;19.04;100.00;100958.47;5074985;28;20461;-57
2023/09/30 03:40:18;;;;;;;0.20;0.20;;;;;;;19.07;100.00;100952.94;5090615;28;20584;-56
2023/09/30 03:42:44;;;;;;;0.20;0.20;;;;;;;19.06;100.00;100957.44;5090269;28;20016;-56
2023/09/30 03:45:11;;;;;;;0.20;0.20;;;;;;;19.05;100.00;100965.63;5071406;28;20901;-56
2023/09/30 03:47:37;;;;;;;0.20;0.20;;;;;;;19.03;100.00;100973.78;5077942;28;20027;-56
2023/09/30 03:50:04;;;;;;;0.20;0.20;;;;;;;19.02;100.00;100972.06;5084120;28;20748;-56
2023/09/30 03:52:33;;;;;;;0.20;0.20;;;;;;;19.03;100.00;100973.78;5070314;28;20024;-56
2023/09/30 03:55:04;;;;;;;0.20;0.20;;;;;;;19.04;100.00;100974.66;5078273;28;20531;-56
2023/09/30 03:57:31;;;;;;;0.20;0.20;;;;;;;19.04;100.00;100977.38;5074039;28;20086;-56
2023/09/30 03:59:57;;;;;;;0.20;0.20;;;;;;;19.05;100.00;100974.59;5092073;28;20024;-56
2023/09/30 04:02:22;;;;;;;0.20;0.20;;;;;;;19.06;100.00;100962.84;5084124;28;20038;-56
2023/09/30 04:04:50;;;;;;;0.20;0.20;;;;;;;19.05;100.00;100971.00;5072276;28;20020;-56
2023/09/30 04:07:16;;;;;;;0.20;0.20;;;;;;;19.07;100.00;100974.50;5072419;28;20025;-56
2023/09/30 04:09:42;;;;;;;0.20;0.20;;;;;;;19.04;100.00;100975.56;5077783;28;20100;-56
2023/09/30 04:12:07;;;;;;;0.20;0.20;;;;;;;19.04;100.00;100982.75;5092177;28;20024;-55
2023/09/30 04:14:33;;;;;;;0.20;0.20;;;;;;;19.01;100.00;100972.13;5092255;28;20020;-57
2023/09/30 04:16:58;;;;;;;0.20;0.20;;;;;;;19.02;100.00;100981.97;5089305;28;20031;-57
2023/09/30 04:19:24;;;;;;;0.17;0.17;;;;;;;19.01;100.00;100985.63;5092155;28;20032;-56
2023/09/30 04:21:49;;;;;;;0.20;0.20;;;;;;;19.00;100.00;100984.72;5088504;28;20031;-57
2023/09/30 04:24:14;;;;;;;0.20;0.20;;;;;;;18.90;100.00;100982.56;5071958;28;20029;-56
2023/09/30 04:26:41;;;;;;;0.20;0.20;;;;;;;18.89;100.00;100980.84;5053708;28;20082;-56
2023/09/30 04:29:10;;;;;;;0.20;0.20;;;;;;;18.82;100.00;100987.50;5084433;28;20105;-56
2023/09/30 04:31:39;;;;;;;0.20;0.20;;;;;;;18.89;100.00;100991.63;5091702;28;20085;-56
2023/09/30 04:34:04;;;;;;;0.28;0.28;;;;;;;18.94;100.00;101000.34;5085288;28;20507;-56
2023/09/30 04:36:30;;;;;;;0.20;0.20;;;;;;;19.02;100.00;101003.53;5075634;28;20081;-56
2023/09/30 04:38:56;;;;;;;0.20;0.20;;;;;;;19.09;100.00;100999.56;5090782;28;20020;-57
2023/09/30 04:41:21;;;;;;;0.20;0.20;;;;;;;18.59;100.00;101003.94;5086492;28;20748;-56
2023/09/30 04:43:47;;;;;;;0.20;0.20;;;;;;;18.39;100.00;101002.25;5090766;28;20418;-57
2023/09/30 04:46:13;;;;;;;0.20;0.20;;;;;;;18.29;100.00;100996.41;5090697;28;20031;-57
2023/09/30 04:48:39;;;;;;;0.20;0.20;;;;;;;18.23;100.00;100991.31;5089628;28;20813;-57
2023/09/30 04:51:08;;;;;;;0.20;0.20;;;;;;;18.14;100.00;100980.97;5072964;28;20459;-56
2023/09/30 04:53:33;;;;;;;0.25;0.25;;;;;;;18.16;100.00;100999.75;5071284;28;20032;-57
2023/09/30 04:55:59;;;;;;;0.20;0.20;;;;;;;18.13;100.00;101003.47;5084304;28;20035;-56
2023/09/30 04:58:25;;;;;;;0.20;0.20;;;;;;;18.11;100.00;101008.06;5091494;28;20035;-56
2023/09/30 05:00:50;;;;;;;0.20;0.20;;;;;;;18.13;100.00;101007.97;5087295;28;20032;-56
2023/09/30 05:03:16;;;;;;;0.17;0.17;;;;;;;18.13;100.00;101006.19;5070878;28;20119;-57
2023/09/30 05:05:41;;;;;;;0.20;0.20;;;;;;;18.09;100.00;100999.16;5069976;28;20020;-56
2023/09/30 05:08:07;;;;;;;0.20;0.20;;;;;;;18.05;100.00;101000.28;5070091;28;20028;-57
2023/09/30 05:10:33;;;;;;;0.20;0.20;;;;;;;18.03;100.00;100993.22;5072183;28;20044;-56
2023/09/30 05:12:59;;;;;;;0.20;0.20;;;;;;;18.04;100.00;100995.81;5069635;28;20039;-56
2023/09/30 05:15:25;;;;;;;0.20;0.20;;;;;;;18.05;100.00;100997.59;5072557;28;20114;-56
2023/09/30 05:17:51;;;;;;;0.20;0.20;;;;;;;18.00;100.00;100988.84;5087806;28;20028;-56
2023/09/30 05:20:20;;;;;;;0.20;0.20;;;;;;;18.03;100.00;101002.16;5090393;28;20080;-57
2023/09/30 05:22:46;;;;;;;0.20;0.20;;;;;;;17.98;100.00;101004.19;5079191;28;20043;-57
2023/09/30 05:25:18;;;;;;;0.20;0.20;;;;;;;17.99;100.00;101019.41;5069031;28;20025;-56
2023/09/30 05:27:45;;;;;;;0.20;0.20;;;;;;;18.02;100.00;101013.00;5084885;28;20511;-57
2023/09/30 05:30:10;;;;;;;0.20;0.20;;;;;;;18.05;100.00;101023.63;5087503;28;20032;-57
2023/09/30 05:32:39;;;;;;;0.13;0.13;;;;;;;18.55;100.00;101011.31;5089461;28;20043;-56
2023/09/30 05:35:12;;;;;;;0.20;0.20;;;;;;;18.61;100.00;101023.63;5089964;28;20020;-57
2023/09/30 05:37:40;;;;;;;0.20;0.20;;;;;;;18.52;100.00;101019.53;5081284;28;20035;-56
2023/09/30 05:40:16;;;;;;;0.20;0.20;;;;;;;18.51;100.00;101016.94;5070619;28;20104;-56
2023/09/30 05:42:44;;;;;;;0.20;0.20;;;;;;;18.57;100.00;101013.91;5088727;28;20387;-57
2023/09/30 05:45:12;;;;;;;0.20;0.20;;;;;;;18.62;100.00;101014.56;5090718;28;20426;-57
2023/09/30 05:47:38;;;;;;;0.20;0.20;;;;;;;18.60;100.00;101016.50;5089461;28;20031;-56
2023/09/30 05:50:03;;;;;;;0.20;0.20;;;;;;;18.68;100.00;101025.91;5090748;28;20031;-56
2023/09/30 05:52:29;;;;;;;0.20;0.20;;;;;;;18.69;100.00;101026.81;5082751;28;20063;-56
2023/09/30 05:54:54;;;;;;;0.20;0.20;;;;;;;18.36;100.00;101023.91;5090005;28;20448;-57
2023/09/30 05:57:20;;;;;;;0.20;0.20;;;;;;;18.01;100.00;101033.66;5088277;28;20375;-56
2023/09/30 05:59:46;;;;;;;0.20;0.20;;;;;;;17.90;100.00;101037.81;5072288;28;20036;-56
2023/09/30 06:02:12;;;;;;;0.20;0.20;;;;;;;17.86;100.00;101053.22;5070065;28;20096;-56
2023/09/30 06:04:37;;;;;;;0.20;0.20;;;;;;;17.82;100.00;101031.91;5073000;28;20062;-57
2023/09/30 06:07:02;;;;;;;0.20;0.20;;;;;;;17.81;100.00;101032.81;5088370;28;20027;-57
2023/09/30 06:09:30;;;;;;;0.20;0.20;;;;;;;17.76;100.00;101038.44;5089054;28;20582;-56
2023/09/30 06:11:55;;;;;;;0.20;0.20;;;;;;;17.83;100.00;101028.25;5072041;28;20146;-57
2023/09/30 06:14:21;;;;;;;0.22;0.22;;;;;;;17.92;100.00;101028.69;5069853;28;20107;-56
2023/09/30 06:16:47;;;;;;;0.20;0.20;;;;;;;17.96;100.00;101037.50;5077212;28;20035;-56
2023/09/30 06:19:13;;;;;;;0.20;0.20;;;;;;;18.08;100.00;101040.53;5089741;28;20035;-56
2023/09/30 06:21:39;;;;;;;0.22;0.22;;;;;;;18.18;100.00;101060.69;5073123;28;20040;-57
2023/09/30 06:24:05;;;;;;;0.28;0.28;;;;;;;18.30;100.00;101067.31;5068376;28;20021;-56
2023/09/30 06:26:31;;;;;;;0.20;0.20;;;;;;;18.45;100.00;101069.28;5076618;28;20055;-57
2023/09/30 06:28:56;;;;;;;0.20;0.20;;;;;;;18.52;100.00;101072.59;5088629;28;20027;-57
2023/09/30 06:31:23;;;;;;;0.20;0.20;;;;;;;18.51;100.00;101070.81;5077440;28;20032;-57
2023/09/30 06:33:48;;;;;;;0.20;0.20;;;;;;;18.57;100.00;101065.13;5070272;28;20028;-56
2023/09/30 06:36:14;;;;;;;0.20;0.20;;;;;;;18.62;100.00;101060.38;5068385;28;20024;-56
2023/09/30 06:38:41;;;;;;;0.20;0.20;;;;;;;18.71;100.00;101068.91;5072921;28;20032;-56
2023/09/30 06:41:07;;;;;;;0.20;0.20;;;;;;;18.88;100.00;101076.16;5088934;28;20034;-56
2023/09/30 06:43:34;;;;;;;0.20;0.20;;;;;;;19.23;100.00;101064.44;5089651;28;20031;-56
2023/09/30 06:46:07;;;;;;;0.20;0.20;;;;;;;19.56;100.00;101052.81;5076079;28;20024;-56
2023/09/30 06:48:32;;;;;;;0.20;0.20;;;;;;;19.83;100.00;101055.88;5069384;28;20025;-59
2023/09/30 06:50:59;;;;;;;0.20;0.20;;;;;;;20.50;100.00;101059.31;5069191;28;20043;-59
2023/09/30 06:53:24;;;;;;;0.10;0.10;;;;;;;21.35;96.81;101057.88;5068929;28;20039;-59
2023/09/30 06:55:51;;;;;;;0.20;0.20;;;;;;;21.93;91.23;101055.22;5084081;28;20032;-59
2023/09/30 06:58:20;;;;;;;0.20;0.20;;;;;;;22.20;87.13;101061.59;5083847;28;20091;-59
2023/09/30 07:00:50;;;;;;;0.20;0.20;;;;;;;22.30;84.31;101065.47;5086399;28;20040;-59
2023/09/30 07:03:16;;;;;;;0.20;0.20;;;;;;;22.35;83.58;101068.75;5068889;28;20757;-59
2023/09/30 07:05:42;;;;;;;0.20;0.20;;;;;;;22.65;82.65;101074.91;5069879;28;20515;-59
2023/09/30 07:08:08;;;;;;;0.20;0.20;;;;;;;22.90;80.29;101066.91;5075938;28;20035;-59
2023/09/30 07:10:33;;;;;;;0.20;0.20;;;;;;;23.57;77.03;101084.97;5078865;28;20044;-59
2023/09/30 07:13:02;;;;;;;0.10;0.10;;;;;;;23.68;74.64;101092.34;5088101;28;20746;-59
2023/09/30 07:15:27;;;;;;;0.20;0.20;;;;;;;23.29;75.38;101102.25;5075404;28;20483;-58
2023/09/30 07:17:53;;;;;;;0.20;0.20;;;;;;;23.06;77.48;101099.34;5072710;28;20048;-58
2023/09/30 07:20:19;;;;;;;0.10;0.10;;;;;;;23.86;76.87;101097.38;5071859;28;20536;-58
2023/09/30 07:22:45;;;;;;;0.10;0.10;;;;;;;25.04;72.75;101094.19;5079073;28;20387;-58
2023/09/30 07:25:10;;;;;;;0.10;0.10;;;;;;;25.48;66.47;101108.94;5092082;28;20022;-58
2023/09/30 07:27:36;;;;;;;0.10;0.10;;;;;;;25.15;66.40;101108.75;5091831;28;20044;-58
2023/09/30 07:30:02;;;;;;;0.10;0.10;;;;;;;24.34;68.00;101109.38;5088737;28;20103;-58
2023/09/30 07:32:28;;;;;;;0.10;0.10;;;;;;;23.59;70.23;101114.75;5071628;28;20144;-58
2023/09/30 07:34:55;;;;;;;0.10;0.10;;;;;;;23.61;70.24;101112.78;5072577;28;20108;-58
2023/09/30 07:37:20;;;;;;;0.10;0.10;;;;;;;23.86;69.93;101112.81;5076912;28;20040;-58
2023/09/30 07:39:46;;;;;;;0.10;0.10;;;;;;;24.65;67.89;101106.16;5072434;28;20036;-58
2023/09/30 07:42:11;;;;;;;0.10;0.10;;;;;;;25.18;64.97;101108.50;5085161;28;20036;-58
2023/09/30 07:44:37;;;;;;;0.10;0.10;;;;;;;25.74;62.72;101102.34;5071955;28;20082;-58
2023/09/30 07:47:06;;;;;;;0.20;0.20;;;;;;;25.55;59.02;101102.00;5078684;28;20025;-58
2023/09/30 07:49:32;;;;;;;0.17;0.17;;;;;;;25.49;60.03;101101.59;5088403;28;20074;-58
2023/09/30 07:51:58;;;;;;;0.10;0.10;;;;;;;25.55;58.76;101104.72;5090360;28;20024;-58
2023/09/30 07:54:23;;;;;;;0.10;0.10;;;;;;;25.42;59.54;101112.09;5073422;28;20034;-58
2023/09/30 07:56:49;;;;;;;0.10;0.10;;;;;;;25.52;59.29;101109.53;5089241;28;20032;-58
2023/09/30 07:59:15;;;;;;;0.10;0.10;;;;;;;25.80;58.49;101100.97;5072532;28;20364;-58
2023/09/30 08:01:41;;;;;;;0.10;0.10;;;;;;;26.39;57.55;101107.16;5074471;28;20032;-58
2023/09/30 08:04:06;;;;;;;0.10;0.10;;;;;;;26.57;55.44;101102.94;5075399;28;20028;-57
2023/09/30 08:06:32;;;;;;;0.10;0.10;;;;;;;26.78;53.55;101107.53;5082224;28;20028;-58
2023/09/30 08:08:58;;;;;;;0.10;0.10;;;;;;;27.09;54.37;101100.38;5072593;28;20029;-55
2023/09/30 08:11:27;;;;;;;0.10;0.10;;;;;;;27.08;53.15;101099.50;5084053;28;20048;-56
2023/09/30 08:13:53;;;;;;;0.10;0.10;;;;;;;27.15;52.75;101099.88;5088252;28;20054;-55
2023/09/30 08:16:19;;;;;;;0.10;0.10;;;;;;;27.27;53.27;101104.31;5073807;28;20013;-56
2023/09/30 08:18:44;;;;;;;0.10;0.10;;;;;;;27.17;53.18;101089.69;5080488;28;20400;-55
2023/09/30 08:21:11;;;;;;;0.10;0.10;;;;;;;27.13;54.27;101093.69;5070676;28;20029;-55
2023/09/30 08:23:36;;;;;;;0.10;0.10;;;;;;;27.21;51.76;101094.75;5084010;28;20464;-56
2023/09/30 08:26:03;;;;;;;0.10;0.10;;;;;;;27.12;51.19;101101.00;5070827;28;20119;-55
2023/09/30 08:28:28;;;;;;;0.10;0.10;;;;;;;27.76;49.70;101106.50;5073856;28;20434;-55
2023/09/30 08:30:58;;;;;;;0.10;0.10;;;;;;;27.52;48.80;101109.47;5071743;28;20029;-55
2023/09/30 08:33:25;;;;;;;0.10;0.10;;;;;;;27.49;49.65;101109.72;5079492;28;20039;-55
2023/09/30 08:35:51;;;;;;;0.10;0.10;;;;;;;27.38;50.80;101109.75;5072201;28;20020;-56
2023/09/30 08:38:16;;;;;;;0.10;0.10;;;;;;;27.19;49.39;101112.28;5071583;28;20021;-55
2023/09/30 08:40:44;;;;;;;0.10;0.10;;;;;;;26.54;49.45;101114.97;5074254;28;20050;-55
2023/09/30 08:43:11;;;;;;;0.10;0.10;;;;;;;26.64;51.78;101109.66;5071501;28;20036;-55
2023/09/30 08:45:42;;;;;;;0.10;0.10;;;;;;;27.20;51.45;101111.28;5073800;28;20025;-55
2023/09/30 08:48:08;;;;;;;0.10;0.10;;;;;;;27.68;50.61;101109.88;5071614;28;20069;-55
2023/09/30 08:50:35;;;;;;;0.10;0.10;;;;;;;28.18;47.84;101110.97;5070847;28;20034;-55
2023/09/30 08:53:03;;;;;;;0.10;0.10;;;;;;;28.45;45.85;101116.75;5070908;28;20143;-55
2023/09/30 08:55:29;;;;;;;0.10;0.10;;;;;;;28.55;46.94;101106.69;5078016;28;20016;-55
2023/09/30 08:57:56;;;;;;;0.10;0.10;;;;;;;28.82;46.91;101125.25;5090460;28;20031;-56
2023/09/30 09:00:22;;;;;;;0.10;0.10;;;;;;;29.16;45.44;101119.31;5088452;28;20046;-56
2023/09/30 09:02:50;;;;;;;0.10;0.10;;;;;;;29.61;44.61;101104.06;5079001;28;20445;-56
2023/09/30 09:05:16;;;;;;;0.10;0.10;;;;;;;29.55;44.27;101112.00;5088807;28;20019;-56
2023/09/30 09:07:42;;;;;;;0.00;0.00;;;;;;;29.48;45.88;101102.59;5072698;28;20097;-56
2023/09/30 09:10:09;;;;;;;0.00;0.00;;;;;;;29.87;42.82;101107.09;5071940;28;20076;-55
2023/09/30 09:12:38;;;;;;;0.05;0.05;;;;;;;29.71;42.99;101119.66;5090115;28;20387;-56
2023/09/30 09:15:06;;;;;;;0.00;0.00;;;;;;;29.70;44.89;101113.34;5090047;28;20028;-56
2023/09/30 09:17:43;;;;;;;0.00;0.00;;;;;;;29.53;43.91;101105.78;5086236;28;20032;-56
2023/09/30 09:20:19;;;;;;;0.00;0.00;;;;;;;29.89;43.90;101101.44;5064701;28;20024;-58
2023/09/30 09:22:46;;;;;;;0.00;0.00;;;;;;;30.42;43.53;101094.41;5078806;28;20066;-57
2023/09/30 09:25:12;;;;;;;0.00;0.00;;;;;;;29.96;43.28;101089.75;5069335;28;20127;-58
2023/09/30 09:27:38;;;;;;;0.00;0.00;;;;;;;30.07;43.11;101073.09;5069703;28;20528;-58
2023/09/30 09:30:16;;;;;;;0.00;0.00;;;;;;;30.32;41.42;101077.97;5072326;28;20022;-57
2023/09/30 09:33:01;;;;;;;0.00;0.00;;;;;;;30.10;42.78;101078.28;5070559;28;20032;-57
2023/09/30 09:35:30;;;;;;;0.00;0.00;;;;;;;29.87;42.83;101087.88;5077379;28;20046;-57
2023/09/30 09:38:08;;;;;;;0.00;0.00;;;;;;;29.97;42.13;101087.88;5079933;28;20388;-57
2023/09/30 09:40:35;;;;;;;0.00;0.00;;;;;;;29.84;42.31;101095.53;5082720;28;20464;-58
2023/09/30 09:43:05;;;;;;;0.00;0.00;;;;;;;30.11;43.09;101092.88;5084017;28;20085;-57
2023/09/30 09:45:33;;;;;;;0.00;0.00;;;;;;;30.19;42.88;101091.13;5078583;28;20734;-57
2023/09/30 09:47:59;;;;;;;0.00;0.00;;;;;;;30.09;42.88;101089.41;5070116;28;20028;-57
2023/09/30 09:50:24;;;;;;;0.00;0.00;;;;;;;30.35;43.73;101088.66;5070864;28;20766;-57
2023/09/30 09:52:59;;;;;;;0.00;0.00;;;;;;;30.16;43.64;101094.19;5073115;28;20060;-57
2023/09/30 09:55:25;;;;;;;0.00;0.00;;;;;;;30.06;44.19;101096.09;5073819;28;20464;-57
2023/09/30 09:57:51;;;;;;;0.00;0.00;;;;;;;30.04;41.78;101094.50;5088004;28;20047;-57
2023/09/30 10:00:22;;;;;;;0.00;0.00;;;;;;;30.33;43.34;101085.19;5075093;28;20445;-57
2023/09/30 10:02:48;;;;;;;0.00;0.00;;;;;;;30.42;43.65;101091.66;5088481;28;20028;-57
2023/09/30 10:05:16;;;;;;;0.00;0.00;;;;;;;30.73;43.47;101093.09;5082001;28;20077;-57
2023/09/30 10:08:02;;;;;;;0.00;0.00;;;;;;;30.68;41.20;101088.06;5078087;28;20528;-57
2023/09/30 10:10:29;;;;;;;0.00;0.00;;;;;;;30.87;41.24;101074.25;5073297;28;20503;-57
2023/09/30 10:12:54;;;;;;;0.00;0.00;;;;;;;31.02;41.95;101076.47;5085088;28;20105;-58
2023/09/30 10:15:25;;;;;;;0.00;0.00;;;;;;;30.71;41.52;101073.16;5086853;28;20438;-57
2023/09/30 10:18:07;;;;;;;0.00;0.00;;;;;;;31.03;41.55;101076.31;5087947;28;20105;-57
2023/09/30 10:20:35;;;;;;;0.00;0.00;;;;;;;31.11;40.64;101070.03;5081227;28;20055;-57
2023/09/30 10:23:19;;;;;;;0.00;0.00;;;;;;;31.40;40.19;101067.97;5066529;28;20040;-58
2023/09/30 10:25:51;;;;;;;0.00;0.00;;;;;;;31.24;41.23;101065.00;5073781;28;20027;-57
2023/09/30 10:28:37;;;;;;;0.00;0.00;;;;;;;31.11;40.48;101072.78;5072996;28;20024;-57
2023/09/30 10:31:24;;;;;;;0.00;0.00;;;;;;;31.14;39.90;101081.59;5074803;28;20472;-56
2023/09/30 10:34:01;;;;;;;0.00;0.00;;;;;;;31.08;39.46;101081.34;5079993;28;20040;-56
2023/09/30 10:36:39;;;;;;;0.00;0.00;;;;;;;32.00;39.43;101081.75;5072036;28;20031;-56
2023/09/30 10:39:12;;;;;;;0.00;0.00;;;;;;;31.83;38.61;101076.22;5067677;28;20711;-56
2023/09/30 10:41:41;;;;;;;0.00;0.00;;;;;;;31.69;39.37;101074.06;5084212;28;20051;-56
2023/09/30 10:44:32;;;;;;;0.00;0.00;;;;;;;31.17;39.15;101063.94;5068366;28;20146;-57
2023/09/30 10:46:58;;;;;;;0.00;0.00;;;;;;;31.43;39.68;101056.66;5070401;28;20048;-57
2023/09/30 10:49:24;;;;;;;0.00;0.00;;;;;;;31.34;39.80;101065.84;5070729;28;20050;-57
2023/09/30 10:51:54;;;;;;;0.00;0.00;;;;;;;31.48;39.98;101065.31;5068431;28;20036;-57
2023/09/30 10:54:25;;;;;;;0.00;0.00;;;;;;;31.63;38.98;101066.47;5083876;28;20040;-57
2023/09/30 10:56:50;;;;;;;0.00;0.00;;;;;;;32.11;38.96;101055.81;5085791;28;20107;-57
2023/09/30 10:59:20;;;;;;;0.00;0.00;;;;;;;32.44;38.65;101052.25;5085748;28;20080;-57
2023/09/30 11:01:46;;;;;;;0.00;0.00;;;;;;;31.95;38.86;101050.22;5080670;28;20077;-57
2023/09/30 11:04:11;;;;;;;0.00;0.00;;;;;;;30.99;39.52;101054.81;5086185;28;20054;-57
2023/09/30 11:06:40;;;;;;;0.00;0.00;;;;;;;30.16;41.73;101044.78;5081967;28;20036;-57
2023/09/30 11:09:08;;;;;;;0.00;0.00;;;;;;;30.12;42.89;101035.09;5074285;28;20110;-57
2023/09/30 11:11:43;;;;;;;0.00;0.00;;;;;;;30.20;40.98;101034.38;5080996;28;20070;-57
2023/09/30 11:14:25;;;;;;;0.00;0.00;;;;;;;30.57;41.33;101038.84;5084594;28;20043;-57
2023/09/30 11:16:52;;;;;;;0.00;0.00;;;;;;;31.03;41.27;101040.59;5086565;28;20038;-57
2023/09/30 11:19:20;;;;;;;0.00;0.00;;;;;;;31.46;39.17;101040.69;5079819;28;20066;-57
2023/09/30 11:21:47;;;;;;;0.00;0.00;;;;;;;31.65;39.56;101036.88;5085977;28;20032;-57